createdAt,value
2022-07-31T00:02:08.089Z,101439.53
2022-07-31T00:04:35.043Z,101437.72
2022-07-31T00:07:02.425Z,101436.22
2022-07-31T00:09:53.374Z,101432.56
2022-07-31T00:12:17.766Z,101438.69
2022-07-31T00:14:45.261Z,101433.03
2022-07-31T00:17:12.108Z,101418.97
2022-07-31T00:19:38.965Z,101428.59
2022-07-31T00:22:05.901Z,101428.25
2022-07-31T00:24:32.705Z,101421.31
2022-07-31T00:27:00.019Z,101426.78
2022-07-31T00:29:27.162Z,101425.59
2022-07-31T00:31:54.021Z,101426.91
2022-07-31T00:34:20.860Z,101425.09
2022-07-31T00:36:47.826Z,101424.13
2022-07-31T00:39:15.551Z,101430.91
2022-07-31T00:41:43.860Z,101421.53
2022-07-31T00:44:12.748Z,101416.44
2022-07-31T00:46:40.580Z,101423.63
2022-07-31T00:49:10.393Z,101416.53
2022-07-31T00:51:38.303Z,101405.94
2022-07-31T00:54:06.105Z,101403.94
2022-07-31T00:56:33.098Z,101408.69
2022-07-31T00:59:00.200Z,101410.41
2022-07-31T01:01:27.855Z,101397.56
2022-07-31T01:03:54.944Z,101411.16
2022-07-31T01:06:21.986Z,101396.81
2022-07-31T01:08:48.941Z,101409.03
2022-07-31T01:11:36.515Z,101400.31
2022-07-31T01:14:07.119Z,101401.13
2022-07-31T01:16:43.096Z,101399.81
2022-07-31T01:19:43.454Z,101400.16
2022-07-31T01:22:33.600Z,101400.00
2022-07-31T01:25:12.205Z,101390.75
2022-07-31T01:27:57.718Z,101395.84
2022-07-31T01:30:30.612Z,101392.91
2022-07-31T01:32:57.704Z,101390.09
2022-07-31T01:35:27.704Z,101388.59
2022-07-31T01:38:01.239Z,101392.91
2022-07-31T01:40:35.760Z,101392.06
2022-07-31T01:43:05.718Z,101388.94
2022-07-31T01:45:32.684Z,101392.41
2022-07-31T01:48:00.527Z,101391.25
2022-07-31T01:50:42.230Z,101383.81
2022-07-31T01:53:10.663Z,101385.66
2022-07-31T01:56:02.606Z,101377.19
2022-07-31T01:58:25.239Z,101383.34
2022-07-31T02:00:53.475Z,101389.75
2022-07-31T02:03:20.381Z,101387.94
2022-07-31T02:06:07.245Z,101380.38
2022-07-31T02:08:34.203Z,101376.69
2022-07-31T02:11:01.759Z,101379.34
2022-07-31T02:13:28.785Z,101376.88
2022-07-31T02:15:56.763Z,101383.00
2022-07-31T02:18:23.940Z,101367.97
2022-07-31T02:20:51.099Z,101369.94
2022-07-31T02:23:18.362Z,101368.13
2022-07-31T02:25:45.582Z,101364.16
2022-07-31T02:28:15.341Z,101373.41
2022-07-31T02:30:43.640Z,101360.34
2022-07-31T02:33:13.070Z,101359.19
2022-07-31T02:35:44.083Z,101360.69
2022-07-31T02:38:21.690Z,101359.84
2022-07-31T02:40:58.507Z,101361.16
2022-07-31T02:43:25.860Z,101353.22
2022-07-31T02:45:52.683Z,101358.34
2022-07-31T02:48:19.605Z,101333.56
2022-07-31T02:50:46.379Z,101345.78
2022-07-31T02:53:13.283Z,101343.47
2022-07-31T02:55:40.186Z,101341.50
2022-07-31T02:58:07.022Z,101343.97
2022-07-31T03:00:34.050Z,101339.34
2022-07-31T03:03:00.940Z,101339.16
2022-07-31T03:05:27.946Z,101337.53
2022-07-31T03:07:54.781Z,101342.63
2022-07-31T03:10:22.524Z,101333.22
2022-07-31T03:12:51.071Z,101338.66
2022-07-31T03:15:19.564Z,101328.44
2022-07-31T03:17:46.701Z,101329.59
2022-07-31T03:20:14.109Z,101333.88
2022-07-31T03:22:41.025Z,101338.16
2022-07-31T03:25:08.339Z,101323.13
2022-07-31T03:27:35.480Z,101328.91
2022-07-31T03:30:02.681Z,101334.03
2022-07-31T03:32:30.667Z,101336.34
2022-07-31T03:34:57.560Z,101335.00
2022-07-31T03:37:24.360Z,101335.47
2022-07-31T03:39:51.200Z,101337.06
2022-07-31T03:42:18.733Z,101322.84
2022-07-31T03:44:46.365Z,101338.31
2022-07-31T03:47:13.259Z,101333.47
2022-07-31T03:49:43.623Z,101331.78
2022-07-31T03:52:12.407Z,101327.94
2022-07-31T03:54:40.334Z,101336.22
2022-07-31T03:57:07.183Z,101330.44
2022-07-31T03:59:40.734Z,101331.78
2022-07-31T04:02:18.896Z,101332.25
2022-07-31T04:04:46.097Z,101335.53
2022-07-31T04:07:13.001Z,101329.88
2022-07-31T04:09:39.854Z,101327.53
2022-07-31T04:12:07.198Z,101326.53
2022-07-31T04:14:34.383Z,101328.19
2022-07-31T04:17:01.245Z,101324.84
2022-07-31T04:19:31.105Z,101327.50
2022-07-31T04:21:58.740Z,101323.00
2022-07-31T04:24:26.070Z,101324.66
2022-07-31T04:26:55.121Z,101324.50
2022-07-31T04:29:22.021Z,101321.66
2022-07-31T04:31:48.980Z,101323.72
2022-07-31T04:34:15.785Z,101326.38
2022-07-31T04:36:42.609Z,101309.66
2022-07-31T04:39:09.429Z,101324.03
2022-07-31T04:41:36.481Z,101329.81
2022-07-31T04:44:03.502Z,101323.13
2022-07-31T04:46:30.465Z,101316.66
2022-07-31T04:48:57.448Z,101321.16
2022-07-31T04:51:24.423Z,101319.16
2022-07-31T04:53:51.439Z,101322.44
2022-07-31T04:56:39.282Z,101320.25
2022-07-31T04:59:07.642Z,101322.06
2022-07-31T05:01:34.681Z,101319.69
2022-07-31T05:04:01.690Z,101328.59
2022-07-31T05:06:47.967Z,101322.56
2022-07-31T05:09:19.685Z,101329.63
2022-07-31T05:11:52.742Z,101321.78
2022-07-31T05:14:20.880Z,101323.72
2022-07-31T05:16:48.007Z,101328.56
2022-07-31T05:19:15.131Z,101325.66
2022-07-31T05:21:46.945Z,101324.94
2022-07-31T05:24:22.653Z,101325.28
2022-07-31T05:27:04.222Z,101327.25
2022-07-31T05:29:31.922Z,101329.16
2022-07-31T05:32:00.445Z,101323.75
2022-07-31T05:34:30.065Z,101318.50
2022-07-31T05:37:03.921Z,101326.19
2022-07-31T05:39:30.866Z,101334.69
2022-07-31T05:41:57.730Z,101323.31
2022-07-31T05:44:24.886Z,101319.69
2022-07-31T05:49:18.365Z,101330.56
2022-07-31T05:51:45.635Z,101319.47
2022-07-31T05:54:12.511Z,101331.72
2022-07-31T05:56:39.308Z,101326.94
2022-07-31T05:59:06.127Z,101327.81
2022-07-31T06:01:33.100Z,101333.00
2022-07-31T06:03:59.923Z,101332.22
2022-07-31T06:06:27.134Z,101323.47
2022-07-31T06:08:54.318Z,101322.69
2022-07-31T06:11:22.239Z,101329.16
2022-07-31T06:13:49.207Z,101328.56
2022-07-31T06:16:16.103Z,101334.31
2022-07-31T06:18:43.055Z,101332.94
2022-07-31T06:23:37.337Z,101331.84
2022-07-31T06:26:04.893Z,101333.75
2022-07-31T06:28:37.871Z,101327.44
2022-07-31T06:31:19.162Z,101331.38
2022-07-31T06:33:48.136Z,101335.56
2022-07-31T06:36:16.040Z,101334.38
2022-07-31T06:38:42.949Z,101329.25
2022-07-31T06:41:09.834Z,101325.53
2022-07-31T06:43:36.724Z,101335.41
2022-07-31T06:46:03.585Z,101333.81
2022-07-31T06:48:30.444Z,101333.81
2022-07-31T06:51:28.366Z,101330.75
2022-07-31T06:53:44.422Z,101340.59
2022-07-31T06:56:11.282Z,101335.88
2022-07-31T06:58:38.188Z,101336.47
2022-07-31T07:01:05.218Z,101329.75
2022-07-31T07:03:32.262Z,101332.41
2022-07-31T07:05:59.600Z,101328.38
2022-07-31T07:08:26.514Z,101317.09
2022-07-31T07:10:53.331Z,101323.63
2022-07-31T07:13:20.447Z,101321.94
2022-07-31T07:15:49.057Z,101320.53
2022-07-31T07:18:16.005Z,101316.44
2022-07-31T07:20:42.877Z,101323.41
2022-07-31T07:23:09.865Z,101320.31
2022-07-31T07:25:36.763Z,101311.34
2022-07-31T07:28:03.795Z,101317.69
2022-07-31T07:30:30.821Z,101317.72
2022-07-31T07:32:57.663Z,101316.06
2022-07-31T07:35:24.565Z,101307.25
2022-07-31T07:37:51.483Z,101313.00
2022-07-31T07:40:20.490Z,101315.88
2022-07-31T07:42:47.438Z,101311.97
2022-07-31T07:45:14.349Z,101289.00
2022-07-31T07:48:05.314Z,101310.75
2022-07-31T07:50:29.231Z,101304.78
2022-07-31T07:52:56.960Z,101308.09
2022-07-31T07:55:23.983Z,101301.72
2022-07-31T07:57:51.004Z,101309.50
2022-07-31T08:00:17.878Z,101302.53
2022-07-31T08:03:47.489Z,101302.50
2022-07-31T08:05:35.622Z,101303.94
2022-07-31T08:08:03.302Z,101311.13
2022-07-31T08:10:30.326Z,101301.69
2022-07-31T08:12:57.741Z,101306.00
2022-07-31T08:15:25.872Z,101313.19
2022-07-31T08:17:52.786Z,101305.78
2022-07-31T08:20:20.302Z,101314.44
2022-07-31T08:22:47.360Z,101309.88
2022-07-31T08:25:15.170Z,101306.56
2022-07-31T08:27:42.444Z,101300.31
2022-07-31T08:30:10.968Z,101311.59
2022-07-31T08:32:38.763Z,101301.50
2022-07-31T08:35:06.188Z,101303.47
2022-07-31T08:38:01.304Z,101303.63
2022-07-31T08:40:21.097Z,101300.25
2022-07-31T08:42:48.132Z,101307.47
2022-07-31T08:45:15.298Z,101309.63
2022-07-31T08:47:43.848Z,101314.53
2022-07-31T08:50:12.272Z,101313.25
2022-07-31T08:52:40.647Z,101320.16
2022-07-31T08:55:09.442Z,101318.84
2022-07-31T08:57:37.176Z,101327.69
2022-07-31T09:00:08.350Z,101317.03
2022-07-31T09:02:35.303Z,101323.41
2022-07-31T09:05:02.323Z,101323.50
2022-07-31T09:07:29.403Z,101318.53
2022-07-31T09:09:56.269Z,101323.59
2022-07-31T09:12:35.502Z,101329.97
2022-07-31T09:15:02.371Z,101333.16
2022-07-31T09:17:35.820Z,101326.94
2022-07-31T09:20:04.260Z,101323.53
2022-07-31T09:22:31.443Z,101320.22
2022-07-31T09:25:19.014Z,101328.81
2022-07-31T09:27:47.608Z,101320.19
2022-07-31T09:30:15.560Z,101320.97
2022-07-31T09:32:43.374Z,101334.41
2022-07-31T09:35:11.847Z,101328.44
2022-07-31T09:37:39.336Z,101330.88
2022-07-31T09:40:07.954Z,101327.53
2022-07-31T09:42:36.883Z,101322.03
2022-07-31T09:45:16.787Z,101323.25
2022-07-31T09:47:43.649Z,101330.16
2022-07-31T09:50:10.645Z,101320.84
2022-07-31T09:52:37.713Z,101328.50
2022-07-31T09:55:15.664Z,101337.34
2022-07-31T09:57:57.145Z,101314.09
2022-07-31T10:00:24.308Z,101328.25
2022-07-31T10:02:53.004Z,101320.06
2022-07-31T10:05:20.063Z,101321.06
2022-07-31T10:07:47.066Z,101322.75
2022-07-31T10:10:14.127Z,101317.00
2022-07-31T10:12:42.046Z,101320.50
2022-07-31T10:15:13.484Z,101322.91
2022-07-31T10:17:44.751Z,101310.22
2022-07-31T10:20:17.391Z,101310.94
2022-07-31T10:22:46.784Z,101317.94
2022-07-31T10:25:20.050Z,101303.06
2022-07-31T10:27:47.083Z,101302.38
2022-07-31T10:30:14.206Z,101298.28
2022-07-31T10:32:41.286Z,101302.00
2022-07-31T10:35:08.341Z,101307.47
2022-07-31T10:37:58.859Z,101302.03
2022-07-31T10:40:37.781Z,101303.88
2022-07-31T10:43:43.442Z,101301.16
2022-07-31T10:46:10.403Z,101301.09
2022-07-31T10:48:37.320Z,101292.63
2022-07-31T10:51:09.646Z,101293.75
2022-07-31T10:53:51.347Z,101300.19
2022-07-31T10:56:22.243Z,101301.84
2022-07-31T10:58:50.366Z,101299.75
2022-07-31T11:01:17.873Z,101293.88
2022-07-31T11:03:46.923Z,101294.50
2022-07-31T11:06:16.106Z,101301.59
2022-07-31T11:08:43.883Z,101292.53
2022-07-31T11:11:10.992Z,101276.91
2022-07-31T11:13:56.703Z,101288.50
2022-07-31T11:16:23.720Z,101296.41
2022-07-31T11:19:04.403Z,101292.22
2022-07-31T11:21:39.805Z,101297.72
2022-07-31T11:24:16.661Z,101303.16
2022-07-31T11:26:53.623Z,101301.41
2022-07-31T11:30:00.381Z,101303.25
2022-07-31T11:32:25.144Z,101297.22
2022-07-31T11:34:56.525Z,101297.75
2022-07-31T11:37:24.262Z,101306.88
2022-07-31T11:39:52.943Z,101297.47
2022-07-31T11:42:20.801Z,101282.31
2022-07-31T11:44:54.729Z,101296.63
2022-07-31T11:48:09.542Z,101295.06
2022-07-31T11:50:10.781Z,101280.03
2022-07-31T11:52:38.006Z,101286.53
2022-07-31T11:55:11.041Z,101284.28
2022-07-31T11:57:52.460Z,101278.75
2022-07-31T12:00:24.784Z,101283.47
2022-07-31T12:02:56.569Z,101280.28
2022-07-31T12:05:38.845Z,101293.13
2022-07-31T12:08:07.783Z,101280.25
2022-07-31T12:10:34.828Z,101285.69
2022-07-31T12:13:02.243Z,101283.50
2022-07-31T12:15:29.121Z,101292.19
2022-07-31T12:18:03.131Z,101287.59
2022-07-31T12:20:35.929Z,101287.81
2022-07-31T12:23:05.186Z,101280.81
2022-07-31T12:25:46.136Z,101287.69
2022-07-31T12:28:16.364Z,101281.34
2022-07-31T12:30:43.742Z,101279.66
2022-07-31T12:33:11.501Z,101286.03
2022-07-31T12:35:55.943Z,101290.72
2022-07-31T12:38:41.036Z,101286.00
2022-07-31T12:41:12.026Z,101282.44
2022-07-31T12:43:38.913Z,101272.63
2022-07-31T12:46:16.920Z,101277.50
2022-07-31T12:48:46.110Z,101281.56
2022-07-31T12:51:13.502Z,101283.13
2022-07-31T12:53:40.382Z,101283.56
2022-07-31T12:56:14.244Z,101279.94
2022-07-31T12:58:41.221Z,101280.66
2022-07-31T13:01:08.145Z,101292.81
2022-07-31T13:03:45.981Z,101295.28
2022-07-31T13:06:14.219Z,101289.53
2022-07-31T13:08:43.911Z,101286.72
2022-07-31T13:11:11.487Z,101292.91
2022-07-31T13:13:38.366Z,101290.75
2022-07-31T13:16:05.506Z,101281.53
2022-07-31T13:18:32.903Z,101282.53
2022-07-31T13:21:00.865Z,101291.75
2022-07-31T13:23:28.047Z,101284.44
2022-07-31T13:25:55.049Z,101279.66
2022-07-31T13:28:21.937Z,101286.19
2022-07-31T13:30:54.660Z,101273.22
2022-07-31T13:33:22.083Z,101278.13
2022-07-31T13:35:48.967Z,101271.72
2022-07-31T13:38:15.862Z,101272.31
2022-07-31T13:41:01.123Z,101273.16
2022-07-31T13:43:27.988Z,101265.88
2022-07-31T13:45:54.868Z,101273.97
2022-07-31T13:48:21.707Z,101273.78
2022-07-31T13:50:48.592Z,101272.03
2022-07-31T13:53:15.442Z,101272.09
2022-07-31T13:55:43.643Z,101277.72
2022-07-31T13:58:12.918Z,101280.72
2022-07-31T14:00:40.482Z,101276.16
2022-07-31T14:03:07.361Z,101274.81
2022-07-31T14:05:40.105Z,101274.44
2022-07-31T14:08:30.605Z,101271.63
2022-07-31T14:10:56.125Z,101275.56
2022-07-31T14:13:23.062Z,101271.75
2022-07-31T14:15:49.948Z,101262.47
2022-07-31T14:18:16.967Z,101243.66
2022-07-31T14:20:43.862Z,101249.03
2022-07-31T14:23:10.764Z,101252.31
2022-07-31T14:25:38.394Z,101243.03
2022-07-31T14:28:06.115Z,101241.91
2022-07-31T14:30:33.980Z,101245.53
2022-07-31T14:33:01.788Z,101241.38
2022-07-31T14:35:28.729Z,101240.16
2022-07-31T14:37:55.923Z,101228.22
2022-07-31T14:40:22.811Z,101248.50
2022-07-31T14:42:49.762Z,101237.94
2022-07-31T14:45:16.624Z,101244.91
2022-07-31T14:47:46.367Z,101251.88
2022-07-31T14:50:19.052Z,101233.66
2022-07-31T14:52:46.717Z,101245.31
2022-07-31T14:55:13.741Z,101242.16
2022-07-31T14:57:40.572Z,101234.28
2022-07-31T15:00:12.947Z,101239.06
2022-07-31T15:02:41.601Z,101238.38
2022-07-31T15:06:41.983Z,101229.25
2022-07-31T15:07:56.265Z,101230.69
2022-07-31T15:10:23.284Z,101226.06
2022-07-31T15:12:51.093Z,101221.75
2022-07-31T15:15:18.006Z,101227.00
2022-07-31T15:17:44.810Z,101224.19
2022-07-31T15:20:12.182Z,101220.94
2022-07-31T15:22:39.010Z,101224.81
2022-07-31T15:25:06.541Z,101225.94
2022-07-31T15:27:33.506Z,101240.31
2022-07-31T15:30:03.931Z,101228.06
2022-07-31T15:32:33.954Z,101230.72
2022-07-31T15:35:00.853Z,101233.78
2022-07-31T15:37:27.791Z,101233.06
2022-07-31T15:40:02.272Z,101224.41
2022-07-31T15:42:42.956Z,101221.25
2022-07-31T15:45:12.095Z,101213.75
2022-07-31T15:47:39.324Z,101223.56
2022-07-31T15:50:07.273Z,101221.72
2022-07-31T15:52:34.110Z,101214.03
2022-07-31T15:55:01.103Z,101228.09
2022-07-31T15:57:28.073Z,101215.44
2022-07-31T15:59:54.921Z,101222.47
2022-07-31T16:02:22.684Z,101219.63
2022-07-31T16:04:52.776Z,101219.63
2022-07-31T16:08:29.796Z,101221.06
2022-07-31T16:10:15.497Z,101219.00
2022-07-31T16:12:47.512Z,101221.88
2022-07-31T16:15:15.044Z,101217.38
2022-07-31T16:17:43.754Z,101216.97
2022-07-31T16:20:20.672Z,101214.28
2022-07-31T16:22:58.520Z,101214.91
2022-07-31T16:25:25.969Z,101212.88
2022-07-31T16:27:53.129Z,101217.31
2022-07-31T16:30:20.086Z,101210.94
2022-07-31T16:32:46.969Z,101221.47
2022-07-31T16:35:13.830Z,101204.53
2022-07-31T16:37:51.516Z,101216.91
2022-07-31T16:40:29.007Z,101210.69
2022-07-31T16:43:48.617Z,101206.50
2022-07-31T16:45:48.856Z,101213.69
2022-07-31T16:48:15.722Z,101206.47
2022-07-31T16:50:42.785Z,101201.31
2022-07-31T16:53:09.641Z,101203.28
2022-07-31T16:55:51.551Z,101199.16
2022-07-31T16:58:27.421Z,101203.22
2022-07-31T17:00:54.663Z,101207.44
2022-07-31T17:03:58.361Z,101205.00
2022-07-31T17:06:10.495Z,101206.13
2022-07-31T17:08:38.436Z,101205.06
2022-07-31T17:11:05.607Z,101204.00
2022-07-31T17:13:32.625Z,101208.50
2022-07-31T17:15:59.672Z,101207.41
2022-07-31T17:18:26.606Z,101200.13
2022-07-31T17:20:55.785Z,101204.16
2022-07-31T17:23:43.452Z,101187.91
2022-07-31T17:26:10.802Z,101194.94
2022-07-31T17:28:48.646Z,101199.16
2022-07-31T17:31:15.544Z,101198.91
2022-07-31T17:33:59.678Z,101204.59
2022-07-31T17:36:28.664Z,101204.34
2022-07-31T17:38:56.310Z,101208.91
2022-07-31T17:41:24.913Z,101196.81
2022-07-31T17:43:54.340Z,101196.78
2022-07-31T17:46:34.374Z,101195.38
2022-07-31T17:49:03.673Z,101193.28
2022-07-31T17:51:30.939Z,101190.72
2022-07-31T17:53:59.313Z,101195.03
2022-07-31T17:56:26.955Z,101190.47
2022-07-31T17:58:53.965Z,101186.53
2022-07-31T18:01:24.451Z,101193.50
2022-07-31T18:03:53.940Z,101193.44
2022-07-31T18:06:20.719Z,101189.31
2022-07-31T18:08:47.566Z,101186.78
2022-07-31T18:11:14.482Z,101190.25
2022-07-31T18:13:48.575Z,101194.81
2022-07-31T18:16:18.902Z,101179.00
2022-07-31T18:18:45.882Z,101201.03
2022-07-31T18:21:13.434Z,101197.00
2022-07-31T18:23:43.684Z,101200.44
2022-07-31T18:26:14.608Z,101187.16
2022-07-31T18:28:41.589Z,101201.56
2022-07-31T18:31:13.971Z,101198.47
2022-07-31T18:33:55.381Z,101206.41
2022-07-31T18:36:22.302Z,101203.88
2022-07-31T18:38:49.264Z,101207.03
2022-07-31T18:41:16.226Z,101200.22
2022-07-31T18:43:43.085Z,101196.75
2022-07-31T18:46:10.027Z,101203.59
2022-07-31T18:48:37.003Z,101200.53
2022-07-31T18:51:05.589Z,101208.69
2022-07-31T18:53:33.363Z,101201.13
2022-07-31T18:56:00.267Z,101203.31
2022-07-31T18:58:27.091Z,101206.75
2022-07-31T19:00:55.697Z,101210.56
2022-07-31T19:03:24.371Z,101206.59
2022-07-31T19:05:53.129Z,101207.88
2022-07-31T19:08:20.555Z,101207.22
2022-07-31T19:10:49.706Z,101202.44
2022-07-31T19:13:18.893Z,101197.28
2022-07-31T19:15:50.555Z,101209.47
2022-07-31T19:18:17.382Z,101209.47
2022-07-31T19:20:58.852Z,101199.38
2022-07-31T19:23:34.983Z,101206.06
2022-07-31T19:26:04.127Z,101199.16
2022-07-31T19:28:32.366Z,101199.09
2022-07-31T19:30:59.450Z,101203.72
2022-07-31T19:33:26.486Z,101194.81
2022-07-31T19:35:58.946Z,101196.94
2022-07-31T19:38:27.927Z,101196.75
2022-07-31T19:40:54.851Z,101198.22
2022-07-31T19:43:21.781Z,101191.06
2022-07-31T19:45:58.777Z,101199.13
2022-07-31T19:48:36.757Z,101195.94
2022-07-31T19:51:04.259Z,101196.72
2022-07-31T19:53:31.123Z,101189.88
2022-07-31T19:55:58.146Z,101186.56
2022-07-31T19:58:25.005Z,101189.94
2022-07-31T20:00:51.884Z,101182.16
2022-07-31T20:03:18.961Z,101180.88
2022-07-31T20:05:46.680Z,101179.34
2022-07-31T20:08:13.483Z,101172.19
2022-07-31T20:10:40.360Z,101175.78
2022-07-31T20:13:07.285Z,101170.19
2022-07-31T20:15:51.015Z,101175.56
2022-07-31T20:18:27.265Z,101183.75
2022-07-31T20:20:56.963Z,101174.50
2022-07-31T20:23:24.588Z,101177.59
2022-07-31T20:25:51.480Z,101174.22
2022-07-31T20:28:18.320Z,101172.88
2022-07-31T20:30:45.197Z,101164.75
2022-07-31T20:33:13.226Z,101165.75
2022-07-31T20:35:47.630Z,101154.81
2022-07-31T20:38:15.882Z,101153.72
2022-07-31T20:40:47.967Z,101148.59
2022-07-31T20:43:21.815Z,101146.13
2022-07-31T20:45:48.767Z,101152.94
2022-07-31T20:48:17.881Z,101151.50
2022-07-31T20:50:47.924Z,101145.72
2022-07-31T20:53:16.127Z,101148.63
2022-07-31T20:55:47.142Z,101149.75
2022-07-31T20:58:14.064Z,101153.59
2022-07-31T21:00:41.470Z,101150.97
2022-07-31T21:03:08.407Z,101143.78
2022-07-31T21:05:35.281Z,101143.06
2022-07-31T21:08:02.249Z,101147.22
2022-07-31T21:10:29.916Z,101144.47
2022-07-31T21:12:57.370Z,101144.31
2022-07-31T21:15:41.282Z,101140.44
2022-07-31T21:18:15.112Z,101137.25
2022-07-31T21:20:51.709Z,101128.69
2022-07-31T21:23:24.351Z,101129.53
2022-07-31T21:25:52.743Z,101126.06
2022-07-31T21:28:19.846Z,101130.75
2022-07-31T21:30:46.865Z,101122.03
2022-07-31T21:33:13.804Z,101124.78
2022-07-31T21:35:41.008Z,101125.31
2022-07-31T21:38:11.833Z,101123.81
2022-07-31T21:40:39.605Z,101121.34
2022-07-31T21:43:06.873Z,101113.06
2022-07-31T21:45:49.700Z,101107.78
2022-07-31T21:48:20.896Z,101106.16
2022-07-31T21:50:47.935Z,101104.22
2022-07-31T21:53:14.808Z,101106.03
2022-07-31T21:55:41.666Z,101119.53
2022-07-31T21:58:08.994Z,101112.94
2022-07-31T22:00:35.975Z,101114.03
2022-07-31T22:03:03.549Z,101110.28
2022-07-31T22:05:49.349Z,101112.69
2022-07-31T22:08:16.340Z,101108.69
2022-07-31T22:10:43.230Z,101107.59
2022-07-31T22:13:10.259Z,101107.28
2022-07-31T22:15:58.500Z,101107.97
2022-07-31T22:18:26.583Z,101107.78
2022-07-31T22:20:54.168Z,101106.69
2022-07-31T22:23:21.266Z,101095.50
2022-07-31T22:25:49.590Z,101102.41
2022-07-31T22:28:20.513Z,101100.75
2022-07-31T22:30:47.687Z,101087.38
2022-07-31T22:33:14.654Z,101090.53
2022-07-31T22:35:41.736Z,101092.34
2022-07-31T22:38:08.974Z,101096.16
2022-07-31T22:40:35.975Z,101085.84
2022-07-31T22:43:03.329Z,101089.28
2022-07-31T22:45:30.533Z,101083.50
2022-07-31T22:47:57.620Z,101081.88
2022-07-31T22:50:24.754Z,101083.22
2022-07-31T22:52:51.813Z,101072.47
2022-07-31T22:55:18.889Z,101084.03
2022-07-31T22:57:45.768Z,101084.56
2022-07-31T23:00:14.012Z,101089.00
2022-07-31T23:02:41.727Z,101083.06
2022-07-31T23:05:09.311Z,101087.66
2022-07-31T23:07:36.546Z,101084.19
2022-07-31T23:10:05.347Z,101078.09
2022-07-31T23:12:32.191Z,101073.97
2022-07-31T23:14:59.047Z,101074.72
2022-07-31T23:17:26.051Z,101071.25
2022-07-31T23:19:53.878Z,101073.50
2022-07-31T23:22:33.288Z,101066.44
2022-07-31T23:25:04.711Z,101066.00
2022-07-31T23:27:32.449Z,101065.31
2022-07-31T23:29:59.712Z,101063.53
2022-07-31T23:32:27.470Z,101062.00
2022-07-31T23:34:54.367Z,101068.25
2022-07-31T23:37:21.269Z,101068.41
2022-07-31T23:39:48.128Z,101070.34
2022-07-31T23:42:33.232Z,101070.63
2022-07-31T23:45:00.114Z,101072.44
2022-07-31T23:47:44.414Z,101068.28
2022-07-31T23:50:13.429Z,101067.63
2022-07-31T23:52:40.333Z,101076.03
2022-07-31T23:55:07.446Z,101085.41
2022-07-31T23:57:36.240Z,101072.72
